Details From FVHA - Harare Intl
To HBBA - Bujumbura Intl
Flight Number -
Tags Generated
Created
Modified
Stats Distance 885 nm / 1,640 km
Max Altitude 0 ft / 0 m
Waypoints 4
Social Downloads 2
Likes 0
Share VATSIM

Download

Looking for another format? Having issues loading an existing format? Contact us
Advertisement - Login to hide

Notes

Generated

Route

FVHA GESUD BJA HBBA

ID Type Via Altitude Latitude Longitude Leg Dist Tot Dist Heading (true) Name
O FVHA APT - 0 ft / 0 m -17.94688˚ 31.07709˚ - 0 nm - -
GESUD FIX - 0 ft / 0 m -14.44064˚ 30.58175˚ 212 nm 212 nm 352° / 352° -
BJA VOR - 0 ft / 0 m -3.34634˚ 29.32203˚ 670 nm 882 nm 353° / 354° BUJUMBURA VOR-DME
O HBBA APT - 0 ft / 0 m -3.30799˚ 29.31601˚ 2 nm 885 nm 351° / 351° -

Altitude Profile

Advertisement - Login to hide

Weather


0- 5 10 15 20 25 30 35+ Temperature / ° C

Clouds and Precipitation
Forecast for 2017-12-17 00:00 UTC. Updated 2 hours ago

Ground ~20,000 ft ~40,000 ft Winds

FVHA

Details ICAO FVHA (HRE)
Name HARARE INTL
Region Zimbabwe
Timezone Africa/Harare (UTC+2.0)
Stats Elevation 4,887 ft / 1,490 m (AMSL)
Location -17.931806° 31.092848°
Runways 1
Magnetic Variation 8.523° W

METAR

FVHA 170000Z 06005KT CAVOK 16/16 Q1023 NOSIG

Decode

TAF

TAF FVHA 162200Z 1700/1806 06009KT CAVOK BECMG 1708/1710 9999 SCT040 PROB30 TEMPO 1712/1716 8000 -TSRA FEW045CB BKN080 FM171800 CAVOK

Decode

Departure Runways

ID Width Length Bearing (true) Bearing (mag) Surface Threshold Offset Overrun Length
05 151 ft / 46 m 15,517 ft / 4,730 m 44.85° 53.37° Asphalt 0 ft / 0 m 320 ft / 98 m
23 151 ft / 46 m 15,517 ft / 4,730 m 224.84° 233.36° Asphalt 3,630 ft / 1,106 m 295 ft / 90 m

HBBA

Details ICAO HBBA (BJM)
Name BUJUMBURA INTL
Region Burundi
Timezone Africa/Bujumbura (UTC+2.0)
Stats Elevation 2,582 ft / 787 m (AMSL)
Location -3.324018° 29.318521°
Runways 1
Magnetic Variation 0.888° E

METAR

Not found

TAF

TAF HBBA 162100Z 1700/1806 36002KT 9999 FEW025 SCT100 BECMG1707/1709 18010G20KT 9999 FEW025 FEW030CB BKN100 PROB30 TEMPO1712/1718 08015G27KT 6000 TSRA OR SHRA SCT025 BKN100 BECMG1720/1722 VRB02KT 9999 FEW028 SCT100

Decode

Destination Runways

ID Width Length Bearing (true) Bearing (mag) Surface Threshold Offset Overrun Length
17 148 ft / 45 m 11,841 ft / 3,609 m 171.10° 170.21° Asphalt 0 ft / 0 m 60 ft / 18 m
35 148 ft / 45 m 11,841 ft / 3,609 m 351.10° 350.21° Asphalt 0 ft / 0 m 60 ft / 18 m

Approach Navaids

Runway Type Ident Frequency Range Bearing (true) Bearing (mag) Slope Elevation
17 Localiser BJ 110.10 MHz 18 nm / 33 km 171.10° 170.21° - 2,582 ft / 787 m (AMSL)
17 Glidescope BJ 110.10 MHz 10 nm / 19 km 171.10° 170.21° 3.20° 2,582 ft / 787 m (AMSL)

Popular Alternatives